createdAt,value
2019-01-31T00:02:38.164Z,66.49
2019-01-31T00:05:27.275Z,66.45
2019-01-31T00:08:15.371Z,66.41
2019-01-31T00:10:49.952Z,66.28
2019-01-31T00:13:21.910Z,66.22
2019-01-31T00:16:12.600Z,66.20
2019-01-31T00:18:44.475Z,66.26
2019-01-31T00:21:19.331Z,66.34
2019-01-31T00:23:51.025Z,66.42
2019-01-31T00:26:37.018Z,66.39
2019-01-31T00:29:17.313Z,66.37
2019-01-31T00:32:22.204Z,66.28
2019-01-31T00:34:59.483Z,66.21
2019-01-31T00:37:40.098Z,66.39
2019-01-31T00:40:26.911Z,66.59
2019-01-31T00:43:04.219Z,66.74
2019-01-31T00:45:53.961Z,66.70
2019-01-31T00:48:25.589Z,66.51
2019-01-31T00:51:14.565Z,66.42
2019-01-31T00:53:55.219Z,66.48
2019-01-31T00:56:48.637Z,66.45
2019-01-31T00:59:42.900Z,66.33
2019-01-31T01:02:20.038Z,66.26
2019-01-31T01:04:54.633Z,66.26
2019-01-31T01:07:49.046Z,66.30
2019-01-31T01:10:20.956Z,66.35
2019-01-31T01:12:54.993Z,66.35
2019-01-31T01:15:55.972Z,66.33
2019-01-31T01:18:42.724Z,66.48
2019-01-31T01:21:23.535Z,66.74
2019-01-31T01:24:01.030Z,66.89
2019-01-31T01:26:53.454Z,66.95
2019-01-31T01:29:25.091Z,67.13
2019-01-31T01:32:18.011Z,67.29
2019-01-31T01:35:06.156Z,67.31
2019-01-31T01:37:58.702Z,67.37
2019-01-31T01:40:45.261Z,67.41
2019-01-31T01:43:43.896Z,67.51
2019-01-31T01:46:30.466Z,67.52
2019-01-31T01:49:04.850Z,67.56
2019-01-31T01:51:42.824Z,67.58
2019-01-31T01:54:26.385Z,67.71
2019-01-31T01:57:07.320Z,67.70
2019-01-31T01:59:53.940Z,67.87
2019-01-31T02:02:37.503Z,68.05
2019-01-31T02:05:12.087Z,68.11
2019-01-31T02:07:52.070Z,68.26
2019-01-31T02:10:29.416Z,68.65
2019-01-31T02:13:09.135Z,68.77
2019-01-31T02:15:43.685Z,68.53
2019-01-31T02:18:15.587Z,68.81
2019-01-31T02:20:56.313Z,68.80
2019-01-31T02:23:39.515Z,68.69
2019-01-31T02:26:26.057Z,68.48
2019-01-31T02:29:06.864Z,68.49
2019-01-31T02:31:38.481Z,68.27
2019-01-31T02:34:26.662Z,68.10
2019-01-31T02:37:13.464Z,68.00
2019-01-31T02:39:45.106Z,67.86
2019-01-31T02:42:34.766Z,67.78
2019-01-31T02:45:11.892Z,67.69
2019-01-31T02:47:52.228Z,67.40
2019-01-31T02:50:29.524Z,67.28
2019-01-31T02:53:37.748Z,67.40
2019-01-31T02:56:25.931Z,67.49
2019-01-31T02:59:03.680Z,67.61
2019-01-31T03:01:40.993Z,67.68
2019-01-31T03:04:18.138Z,67.72
2019-01-31T03:06:58.587Z,67.77
2019-01-31T03:09:54.914Z,67.91
2019-01-31T03:12:28.824Z,67.65
2019-01-31T03:15:00.454Z,67.44
2019-01-31T03:17:50.210Z,67.46
2019-01-31T03:20:38.825Z,67.25
2019-01-31T03:23:19.036Z,66.88
2019-01-31T03:25:50.654Z,66.50
2019-01-31T03:28:28.146Z,66.24
2019-01-31T03:31:09.062Z,66.15
2019-01-31T03:33:43.470Z,66.24
2019-01-31T03:36:21.576Z,65.98
2019-01-31T03:39:17.173Z,65.83
2019-01-31T03:41:51.437Z,65.64
2019-01-31T03:44:31.889Z,65.73
2019-01-31T03:47:09.221Z,65.73
2019-01-31T03:49:43.475Z,65.73
2019-01-31T03:52:24.321Z,65.77
2019-01-31T03:54:55.924Z,65.78
2019-01-31T03:57:45.748Z,65.67
2019-01-31T04:00:32.368Z,65.61
2019-01-31T04:03:06.903Z,65.61
2019-01-31T04:05:39.246Z,65.61
2019-01-31T04:08:07.596Z,65.60
2019-01-31T04:10:35.975Z,65.62
2019-01-31T04:13:04.418Z,65.60
2019-01-31T04:15:32.795Z,65.61
2019-01-31T04:18:01.151Z,65.58
2019-01-31T04:20:29.504Z,65.64
2019-01-31T04:22:57.870Z,65.66
2019-01-31T04:25:26.246Z,65.69
2019-01-31T04:27:54.600Z,65.73
2019-01-31T04:30:22.956Z,65.71
2019-01-31T04:32:51.354Z,65.75
2019-01-31T04:35:19.735Z,65.92
2019-01-31T04:37:48.140Z,65.89
2019-01-31T04:40:16.601Z,65.90
2019-01-31T04:42:45.010Z,65.91
2019-01-31T04:45:13.399Z,65.89
2019-01-31T04:47:41.809Z,65.85
2019-01-31T04:50:13.101Z,66.15
2019-01-31T04:52:41.562Z,66.17
2019-01-31T04:55:09.947Z,66.15
2019-01-31T04:57:38.304Z,66.12
2019-01-31T05:00:15.715Z,66.17
2019-01-31T05:02:44.083Z,66.24
2019-01-31T05:05:12.470Z,66.13
2019-01-31T05:07:40.847Z,66.09
2019-01-31T05:10:11.456Z,66.05
2019-01-31T05:12:39.961Z,65.99
2019-01-31T05:15:11.059Z,65.96
2019-01-31T05:17:39.427Z,66.01
2019-01-31T05:20:11.057Z,66.08
2019-01-31T05:22:39.414Z,66.23
2019-01-31T05:25:09.697Z,66.27
2019-01-31T05:27:38.390Z,66.44
2019-01-31T05:30:09.642Z,66.46
2019-01-31T05:32:38.146Z,66.41
2019-01-31T05:35:07.503Z,66.42
2019-01-31T05:37:36.099Z,66.35
2019-01-31T05:40:07.375Z,66.27
2019-01-31T05:42:35.768Z,66.33
2019-01-31T05:45:06.817Z,66.42
2019-01-31T05:47:35.182Z,66.56
2019-01-31T05:50:04.452Z,66.94
2019-01-31T05:52:32.827Z,67.33
2019-01-31T05:55:01.167Z,67.64
2019-01-31T05:57:29.528Z,68.00
2019-01-31T05:59:57.886Z,68.27
2019-01-31T06:02:26.268Z,68.32
2019-01-31T06:04:54.619Z,68.47
2019-01-31T06:07:22.968Z,68.52
2019-01-31T06:09:51.326Z,68.56
2019-01-31T06:12:19.708Z,68.67
2019-01-31T06:14:48.062Z,68.49
2019-01-31T06:17:16.462Z,68.43
2019-01-31T06:19:44.820Z,68.39
2019-01-31T06:22:13.257Z,68.70
2019-01-31T06:24:41.620Z,68.69
2019-01-31T06:27:09.954Z,68.70
2019-01-31T06:29:39.904Z,68.75
2019-01-31T06:32:08.282Z,68.65
2019-01-31T06:34:36.733Z,68.72
2019-01-31T06:37:05.092Z,68.76
2019-01-31T06:39:33.463Z,68.67
2019-01-31T06:42:01.877Z,68.76
2019-01-31T06:44:30.222Z,68.62
2019-01-31T06:46:58.594Z,68.53
2019-01-31T06:49:27.953Z,68.45
2019-01-31T06:51:56.309Z,68.38
2019-01-31T06:54:24.731Z,68.37
2019-01-31T06:56:53.102Z,68.25
2019-01-31T06:59:21.441Z,68.30
2019-01-31T07:01:49.965Z,68.17
2019-01-31T07:04:18.422Z,68.29
2019-01-31T07:06:46.749Z,68.18
2019-01-31T07:09:15.123Z,68.22
2019-01-31T07:11:43.556Z,68.17
2019-01-31T07:14:11.934Z,68.07
2019-01-31T07:16:40.573Z,68.28
2019-01-31T07:19:09.021Z,68.31
2019-01-31T07:21:37.401Z,68.31
2019-01-31T07:24:05.786Z,68.48
2019-01-31T07:26:34.186Z,68.41
2019-01-31T07:29:02.556Z,68.15
2019-01-31T07:31:30.943Z,68.25
2019-01-31T07:33:59.326Z,68.33
2019-01-31T07:36:27.703Z,68.30
2019-01-31T07:38:56.053Z,68.47
2019-01-31T07:41:24.429Z,68.54
2019-01-31T07:43:54.434Z,68.43
2019-01-31T07:46:22.817Z,68.40
2019-01-31T07:48:51.409Z,68.36
2019-01-31T07:51:19.806Z,68.24
2019-01-31T07:53:48.166Z,68.27
2019-01-31T07:56:16.588Z,68.27
2019-01-31T07:58:45.026Z,68.05
2019-01-31T08:01:13.409Z,67.91
2019-01-31T08:03:41.767Z,67.73
2019-01-31T08:06:10.107Z,67.75
2019-01-31T08:08:38.505Z,67.70
2019-01-31T08:11:06.902Z,67.83
2019-01-31T08:13:35.304Z,67.72
2019-01-31T08:16:05.247Z,67.67
2019-01-31T08:18:33.574Z,67.73
2019-01-31T08:21:01.959Z,67.65
2019-01-31T08:23:30.332Z,67.69
2019-01-31T08:25:58.691Z,67.62
2019-01-31T08:28:27.037Z,67.55
2019-01-31T08:30:55.405Z,67.44
2019-01-31T08:33:23.796Z,67.20
2019-01-31T08:35:52.122Z,66.99
2019-01-31T08:38:20.553Z,66.85
2019-01-31T08:40:48.889Z,66.71
2019-01-31T08:43:20.437Z,66.67
2019-01-31T08:45:47.756Z,66.68
2019-01-31T08:48:16.150Z,66.75
2019-01-31T08:50:45.308Z,66.71
2019-01-31T08:53:13.648Z,66.89
2019-01-31T08:55:42.058Z,66.73
2019-01-31T08:58:10.380Z,66.46
2019-01-31T09:00:38.738Z,66.46
2019-01-31T09:03:07.176Z,66.37
2019-01-31T09:05:35.616Z,66.14
2019-01-31T09:08:03.968Z,66.14
2019-01-31T09:10:37.653Z,66.06
2019-01-31T09:13:07.905Z,66.15
2019-01-31T09:15:36.345Z,66.12
2019-01-31T09:18:05.135Z,66.29
2019-01-31T09:20:48.362Z,66.22
2019-01-31T09:23:32.295Z,66.19
2019-01-31T09:26:03.892Z,66.12
2019-01-31T09:28:50.640Z,66.01
2019-01-31T09:31:44.435Z,66.06
2019-01-31T09:34:32.630Z,65.88
2019-01-31T09:37:28.399Z,65.67
2019-01-31T09:40:08.309Z,65.66
2019-01-31T09:42:51.580Z,65.74
2019-01-31T09:45:23.204Z,65.51
2019-01-31T09:47:54.797Z,65.36
2019-01-31T09:50:35.523Z,65.23
2019-01-31T09:53:13.031Z,65.09
2019-01-31T09:56:17.716Z,65.05
2019-01-31T09:59:09.012Z,65.00
2019-01-31T10:01:59.771Z,64.92
2019-01-31T10:04:55.510Z,64.90
2019-01-31T10:07:41.742Z,64.90
2019-01-31T10:10:29.927Z,64.81
2019-01-31T10:13:16.193Z,64.87
2019-01-31T10:15:53.811Z,64.85
2019-01-31T10:18:42.276Z,64.75
2019-01-31T10:21:16.573Z,64.67
2019-01-31T10:23:59.948Z,64.59
2019-01-31T10:26:34.239Z,64.54
2019-01-31T10:29:11.994Z,64.48
2019-01-31T10:32:01.421Z,64.54
2019-01-31T10:34:35.566Z,64.46
2019-01-31T10:37:16.144Z,64.36
2019-01-31T10:39:47.754Z,64.31
2019-01-31T10:42:22.301Z,64.31
2019-01-31T10:45:08.848Z,64.30
2019-01-31T10:47:49.421Z,64.08
2019-01-31T10:50:26.821Z,64.07
2019-01-31T10:53:19.731Z,64.07
2019-01-31T10:55:58.406Z,63.91
2019-01-31T10:58:49.253Z,63.68
2019-01-31T11:01:26.647Z,63.52
2019-01-31T11:04:14.975Z,63.43
2019-01-31T11:07:10.890Z,63.44
2019-01-31T11:09:47.937Z,63.45
2019-01-31T11:12:31.137Z,63.42
2019-01-31T11:15:39.264Z,63.36
2019-01-31T11:18:22.836Z,63.24
2019-01-31T11:21:03.157Z,63.13
2019-01-31T11:23:49.668Z,63.07
2019-01-31T11:26:21.297Z,62.90
2019-01-31T11:28:58.902Z,62.77
2019-01-31T11:31:50.237Z,62.81
2019-01-31T11:34:32.456Z,62.81
2019-01-31T11:37:03.796Z,62.57
2019-01-31T11:39:38.480Z,62.59
2019-01-31T11:42:16.105Z,62.50
2019-01-31T11:45:21.234Z,62.53
2019-01-31T11:47:59.359Z,62.49
2019-01-31T11:50:45.959Z,62.53
2019-01-31T11:53:23.377Z,62.57
2019-01-31T11:56:18.524Z,62.64
2019-01-31T11:59:04.343Z,62.62
2019-01-31T12:01:32.927Z,62.39
2019-01-31T12:04:03.481Z,62.38
2019-01-31T12:06:31.905Z,62.48
2019-01-31T12:09:00.283Z,62.55
2019-01-31T12:11:28.616Z,62.59
2019-01-31T12:13:57.060Z,62.46
2019-01-31T12:16:25.739Z,62.62
2019-01-31T12:18:54.106Z,62.68
2019-01-31T12:21:22.454Z,62.73
2019-01-31T12:23:50.804Z,62.91
2019-01-31T12:26:19.166Z,62.87
2019-01-31T12:28:47.570Z,62.65
2019-01-31T12:31:15.903Z,62.44
2019-01-31T12:33:44.282Z,62.56
2019-01-31T12:36:12.671Z,62.49
2019-01-31T12:38:41.039Z,62.47
2019-01-31T12:41:09.374Z,62.60
2019-01-31T12:43:37.831Z,62.41
2019-01-31T12:46:06.182Z,62.30
2019-01-31T12:48:34.523Z,62.19
2019-01-31T12:51:02.972Z,62.08
2019-01-31T12:53:31.311Z,61.87
2019-01-31T12:55:59.664Z,61.35
2019-01-31T12:58:33.546Z,61.21
2019-01-31T13:00:58.221Z,61.19
2019-01-31T13:03:26.641Z,61.43
2019-01-31T13:05:55.054Z,61.78
2019-01-31T13:08:23.475Z,62.14
2019-01-31T13:10:51.836Z,62.33
2019-01-31T13:13:20.218Z,62.12
2019-01-31T13:15:48.572Z,61.98
2019-01-31T13:18:16.901Z,61.61
2019-01-31T13:20:45.262Z,61.84
2019-01-31T13:23:13.620Z,61.74
2019-01-31T13:25:42.007Z,61.79
2019-01-31T13:28:10.345Z,61.71
2019-01-31T13:30:38.801Z,61.69
2019-01-31T13:33:07.167Z,61.60
2019-01-31T13:35:35.547Z,61.49
2019-01-31T13:38:04.315Z,61.44
2019-01-31T13:40:32.739Z,61.51
2019-01-31T13:43:01.129Z,61.53
2019-01-31T13:45:31.895Z,61.41
2019-01-31T13:48:02.007Z,61.30
2019-01-31T13:50:30.546Z,61.04
2019-01-31T13:52:58.908Z,60.74
2019-01-31T13:55:29.978Z,60.57
2019-01-31T13:57:58.429Z,60.36
2019-01-31T14:00:26.810Z,60.10
2019-01-31T14:02:55.179Z,60.27
2019-01-31T14:05:24.483Z,60.20
2019-01-31T14:07:53.055Z,60.43
2019-01-31T14:10:27.420Z,60.52
2019-01-31T14:12:56.057Z,60.49
2019-01-31T14:15:33.479Z,60.44
2019-01-31T14:17:57.470Z,60.24
2019-01-31T14:20:27.489Z,60.14
2019-01-31T14:22:55.835Z,60.41
2019-01-31T14:25:24.172Z,60.52
2019-01-31T14:27:52.597Z,60.40
2019-01-31T14:30:32.121Z,60.42
2019-01-31T14:33:00.988Z,60.45
2019-01-31T14:35:29.977Z,59.95
2019-01-31T14:37:58.332Z,59.73
2019-01-31T14:40:26.837Z,59.82
2019-01-31T14:42:55.360Z,59.58
2019-01-31T14:45:23.700Z,59.37
2019-01-31T14:47:52.036Z,59.34
2019-01-31T14:50:29.365Z,59.47
2019-01-31T14:52:57.717Z,59.47
2019-01-31T14:55:26.071Z,59.37
2019-01-31T14:57:54.518Z,59.53
2019-01-31T15:00:28.395Z,59.47
2019-01-31T15:02:57.159Z,59.45
2019-01-31T15:05:25.567Z,59.45
2019-01-31T15:07:53.920Z,59.60
2019-01-31T15:10:25.073Z,59.73
2019-01-31T15:12:53.404Z,59.70
2019-01-31T15:15:23.499Z,59.74
2019-01-31T15:17:53.149Z,59.65
2019-01-31T15:20:38.099Z,59.82
2019-01-31T15:23:03.537Z,59.96
2019-01-31T15:25:32.019Z,59.94
2019-01-31T15:28:00.423Z,59.98
2019-01-31T15:30:34.015Z,59.94
2019-01-31T15:33:03.601Z,59.98
2019-01-31T15:35:32.047Z,60.14
2019-01-31T15:38:00.407Z,60.38
2019-01-31T15:40:37.363Z,60.32
2019-01-31T15:43:05.739Z,60.23
2019-01-31T15:45:34.112Z,60.11
2019-01-31T15:48:02.521Z,60.07
2019-01-31T15:50:30.879Z,60.22
2019-01-31T15:52:59.225Z,60.29
2019-01-31T15:55:28.119Z,60.51
2019-01-31T15:57:56.571Z,60.53
2019-01-31T16:00:44.276Z,60.61
2019-01-31T16:03:19.698Z,60.82
2019-01-31T16:05:48.415Z,60.94
2019-01-31T16:08:16.844Z,61.00
2019-01-31T16:10:45.216Z,61.03
2019-01-31T16:13:13.607Z,61.11
2019-01-31T16:15:42.072Z,61.24
2019-01-31T16:18:11.622Z,61.25
2019-01-31T16:20:39.966Z,61.30
2019-01-31T16:23:08.758Z,61.38
2019-01-31T16:25:37.228Z,61.44
2019-01-31T16:28:05.951Z,61.55
2019-01-31T16:30:34.493Z,61.62
2019-01-31T16:33:03.003Z,61.64
2019-01-31T16:35:31.597Z,61.69
2019-01-31T16:37:59.950Z,61.78
2019-01-31T16:40:28.419Z,61.80
2019-01-31T16:42:56.727Z,61.88
2019-01-31T16:45:25.254Z,61.93
2019-01-31T16:47:53.662Z,61.91
2019-01-31T16:50:23.673Z,61.95
2019-01-31T16:52:52.011Z,62.00
2019-01-31T16:55:23.455Z,62.12
2019-01-31T16:57:52.116Z,62.15
2019-01-31T17:00:29.978Z,62.20
2019-01-31T17:02:58.519Z,62.32
2019-01-31T17:05:31.559Z,62.41
2019-01-31T17:07:59.903Z,62.54
2019-01-31T17:10:28.298Z,62.58
2019-01-31T17:12:56.706Z,62.66
2019-01-31T17:15:25.051Z,62.73
2019-01-31T17:17:53.403Z,62.82
2019-01-31T17:20:30.781Z,62.91
2019-01-31T17:22:59.120Z,62.96
2019-01-31T17:25:27.460Z,63.02
2019-01-31T17:27:55.811Z,63.02
2019-01-31T17:30:25.810Z,63.05
2019-01-31T17:32:54.310Z,63.07
2019-01-31T17:35:22.667Z,63.08
2019-01-31T17:37:51.042Z,63.09
2019-01-31T17:40:26.703Z,63.13
2019-01-31T17:42:55.028Z,63.17
2019-01-31T17:45:30.634Z,63.14
2019-01-31T17:47:53.570Z,63.12
2019-01-31T17:50:21.952Z,63.05
2019-01-31T17:52:50.298Z,62.99
2019-01-31T17:55:20.805Z,62.94
2019-01-31T17:57:49.340Z,62.88
2019-01-31T18:00:24.954Z,62.90
2019-01-31T18:02:53.388Z,62.89
2019-01-31T18:05:21.737Z,62.92
2019-01-31T18:07:50.200Z,62.93
2019-01-31T18:10:20.878Z,62.98
2019-01-31T18:12:49.246Z,63.03
2019-01-31T18:15:17.804Z,63.12
2019-01-31T18:17:46.136Z,63.15
2019-01-31T18:20:19.095Z,63.12
2019-01-31T18:22:47.469Z,63.13
2019-01-31T18:25:15.999Z,63.10
2019-01-31T18:27:44.372Z,63.05
2019-01-31T18:30:21.364Z,62.93
2019-01-31T18:32:49.726Z,62.72
2019-01-31T18:35:18.072Z,62.55
2019-01-31T18:37:46.443Z,62.47
2019-01-31T18:40:23.304Z,62.37
2019-01-31T18:42:51.675Z,62.27
2019-01-31T18:45:22.157Z,62.22
2019-01-31T18:47:50.588Z,62.19
2019-01-31T18:50:22.241Z,62.19
2019-01-31T18:52:50.643Z,62.17
2019-01-31T18:55:18.993Z,62.19
2019-01-31T18:57:47.346Z,62.20
2019-01-31T19:00:23.139Z,62.22
2019-01-31T19:02:51.588Z,62.19
2019-01-31T19:05:19.937Z,62.14
2019-01-31T19:07:48.355Z,62.18
2019-01-31T19:10:16.774Z,62.28
2019-01-31T19:12:45.249Z,62.32
2019-01-31T19:15:16.520Z,62.39
2019-01-31T19:17:45.027Z,62.45
2019-01-31T19:20:16.758Z,62.47
2019-01-31T19:22:45.094Z,62.57
2019-01-31T19:25:13.698Z,62.69
2019-01-31T19:27:42.063Z,62.79
2019-01-31T19:30:16.778Z,62.81
2019-01-31T19:32:44.712Z,62.84
2019-01-31T19:35:13.472Z,63.16
2019-01-31T19:37:41.915Z,62.94
2019-01-31T19:40:24.918Z,62.98
2019-01-31T19:42:53.656Z,63.15
2019-01-31T19:45:27.430Z,63.38
2019-01-31T19:47:55.822Z,63.56
2019-01-31T19:50:24.151Z,63.64
2019-01-31T19:52:52.726Z,63.57
2019-01-31T19:55:21.096Z,63.58
2019-01-31T19:57:49.508Z,63.49
2019-01-31T20:00:20.867Z,63.48
2019-01-31T20:02:49.285Z,63.43
2019-01-31T20:05:17.594Z,63.43
2019-01-31T20:07:46.260Z,63.42
2019-01-31T20:10:17.891Z,63.30
2019-01-31T20:12:46.301Z,63.30
2019-01-31T20:15:14.657Z,63.30
2019-01-31T20:17:43.033Z,63.31
2019-01-31T20:20:14.786Z,63.49
2019-01-31T20:22:43.119Z,63.69
2019-01-31T20:25:12.255Z,63.85
2019-01-31T20:27:40.662Z,64.01
2019-01-31T20:30:15.542Z,64.09
2019-01-31T20:32:43.972Z,64.09
2019-01-31T20:35:17.697Z,64.11
2019-01-31T20:37:46.245Z,64.16
2019-01-31T20:40:17.307Z,64.11
2019-01-31T20:42:45.651Z,64.21
2019-01-31T20:45:15.547Z,64.14
2019-01-31T20:47:43.910Z,64.12
2019-01-31T20:50:19.241Z,64.07
2019-01-31T20:52:47.668Z,63.93
2019-01-31T20:55:16.401Z,63.66
2019-01-31T20:57:45.036Z,63.37
2019-01-31T21:00:18.476Z,63.20
2019-01-31T21:02:46.867Z,63.06
2019-01-31T21:05:15.489Z,63.04
2019-01-31T21:07:43.899Z,62.99
2019-01-31T21:10:12.226Z,62.95
2019-01-31T21:12:40.645Z,62.88
2019-01-31T21:15:13.061Z,62.78
2019-01-31T21:17:41.745Z,62.60
2019-01-31T21:20:12.332Z,62.54
2019-01-31T21:22:40.730Z,62.55
2019-01-31T21:25:12.359Z,62.53
2019-01-31T21:27:40.704Z,62.50
2019-01-31T21:30:12.314Z,62.55
2019-01-31T21:32:40.703Z,62.48
2019-01-31T21:35:10.383Z,62.44
2019-01-31T21:37:38.750Z,62.41
2019-01-31T21:40:12.716Z,62.35
2019-01-31T21:42:41.347Z,62.27
2019-01-31T21:45:12.786Z,62.21
2019-01-31T21:47:41.198Z,62.24
2019-01-31T21:50:15.519Z,62.34
2019-01-31T21:52:44.152Z,62.41
2019-01-31T21:55:13.796Z,62.52
2019-01-31T21:57:42.154Z,62.63
2019-01-31T22:00:22.985Z,62.74
2019-01-31T22:02:51.370Z,62.85
2019-01-31T22:05:19.732Z,63.12
2019-01-31T22:07:48.083Z,63.34
2019-01-31T22:10:18.633Z,63.48
2019-01-31T22:12:47.127Z,63.52
2019-01-31T22:15:18.154Z,63.57
2019-01-31T22:17:46.454Z,63.62
2019-01-31T22:20:14.831Z,63.68
2019-01-31T22:22:43.202Z,63.71
2019-01-31T22:25:16.748Z,63.78
2019-01-31T22:27:45.114Z,63.87
2019-01-31T22:30:19.878Z,63.88
2019-01-31T22:32:47.592Z,63.85
2019-01-31T22:35:15.946Z,64.87
2019-01-31T22:37:44.678Z,63.87
2019-01-31T22:40:15.167Z,63.83
2019-01-31T22:42:43.566Z,63.87
2019-01-31T22:45:14.439Z,63.85
2019-01-31T22:47:43.530Z,63.84
2019-01-31T22:50:14.516Z,63.76
2019-01-31T22:52:42.878Z,63.83
2019-01-31T22:55:13.606Z,63.95
2019-01-31T22:57:41.960Z,64.05
2019-01-31T23:00:56.908Z,64.05
2019-01-31T23:03:25.270Z,64.03
2019-01-31T23:05:53.639Z,64.01
2019-01-31T23:08:21.981Z,64.12
2019-01-31T23:10:50.507Z,64.12
2019-01-31T23:13:18.899Z,64.18
2019-01-31T23:15:47.244Z,64.20
2019-01-31T23:18:15.694Z,64.34
2019-01-31T23:20:44.614Z,64.47
2019-01-31T23:23:13.125Z,64.61
2019-01-31T23:25:41.495Z,64.51
2019-01-31T23:28:09.827Z,64.63
2019-01-31T23:30:38.178Z,64.67
2019-01-31T23:33:06.532Z,64.62
2019-01-31T23:35:34.896Z,64.85
2019-01-31T23:38:03.315Z,65.01
2019-01-31T23:40:31.686Z,64.99
2019-01-31T23:43:00.052Z,64.98
2019-01-31T23:45:28.426Z,64.73
2019-01-31T23:47:56.795Z,64.61
2019-01-31T23:50:25.177Z,64.60
2019-01-31T23:52:53.662Z,64.56
2019-01-31T23:55:22.035Z,64.60
2019-01-31T23:57:50.403Z,64.48
